Time,TemperatureF,DewpointF,PressureIn,WindDirection,WindDirectionDegrees,WindSpeedMPH,WindSpeedGustMPH,Humidity,HourlyPrecipIn,Conditions,Clouds,dailyrainin,SoftwareType,DateUTC
2013-05-07 00:01:00,47.0,46.0,-100.00,West,268,4.0,6.0,95,-99.99,,,-99.99,,2013-05-07 07:01:00,
2013-05-07 00:11:00,47.0,45.0,-100.00,West,271,6.0,9.0,94,-99.99,,,-99.99,,2013-05-07 07:11:00,
2013-05-07 00:22:00,47.0,45.0,-100.00,West,274,5.0,12.0,94,-99.99,,,-99.99,,2013-05-07 07:22:00,
2013-05-07 00:31:00,47.0,45.0,-100.00,West,274,5.0,12.0,94,-99.99,,,-99.99,,2013-05-07 07:31:00,
2013-05-07 00:42:00,47.0,45.0,-100.00,West,274,5.0,12.0,94,-99.99,,,-99.99,,2013-05-07 07:42:00,
2013-05-07 00:52:00,47.0,46.0,-100.00,WSW,241,5.0,9.0,95,-99.99,,,-99.99,,2013-05-07 07:52:00,
2013-05-07 01:02:00,47.0,46.0,-100.00,West,270,6.0,10.0,95,-99.99,,,-99.99,,2013-05-07 08:02:00,
2013-05-07 01:11:00,47.0,46.0,-100.00,WSW,253,5.0,8.0,95,-99.99,,,-99.99,,2013-05-07 08:11:00,
2013-05-07 01:21:00,47.0,46.0,-100.00,West,271,5.0,11.0,95,-99.99,,,-99.99,,2013-05-07 08:21:00,
2013-05-07 01:31:00,47.0,46.0,-100.00,West,276,5.0,8.0,95,-99.99,,,-99.99,,2013-05-07 08:31:00,
2013-05-07 01:41:00,47.0,46.0,-100.00,West,263,4.0,11.0,96,-99.99,,,-99.99,,2013-05-07 08:41:00,
2013-05-07 01:52:00,47.0,46.0,-100.00,West,263,4.0,11.0,96,-99.99,,,-99.99,,2013-05-07 08:52:00,
2013-05-07 02:01:00,47.0,46.0,-100.00,WSW,253,5.0,14.0,96,-99.99,,,-99.99,,2013-05-07 09:01:00,
2013-05-07 02:11:00,47.0,46.0,-100.00,WSW,253,5.0,14.0,96,-99.99,,,-99.99,,2013-05-07 09:11:00,
2013-05-07 02:22:00,47.0,46.0,-100.00,West,266,11.0,16.0,96,-99.99,,,-99.99,,2013-05-07 09:22:00,
2013-05-07 02:33:00,47.0,46.0,-100.00,West,279,10.0,15.0,96,-99.99,,,-99.99,,2013-05-07 09:33:00,
2013-05-07 02:42:00,47.0,46.0,-100.00,West,279,10.0,15.0,96,-99.99,,,-99.99,,2013-05-07 09:42:00,
2013-05-07 02:52:00,47.0,46.0,-100.00,West,279,10.0,15.0,96,-99.99,,,-99.99,,2013-05-07 09:52:00,
2013-05-07 03:02:00,47.0,46.0,-100.00,WSW,245,5.0,10.0,96,-99.99,,,-99.99,,2013-05-07 10:02:00,
2013-05-07 03:12:00,47.0,46.0,-100.00,WSW,245,5.0,10.0,96,-99.99,,,-99.99,,2013-05-07 10:12:00,
2013-05-07 03:22:00,47.0,46.0,-100.00,SW,224,8.0,17.0,96,-99.99,,,-99.99,,2013-05-07 10:22:00,
2013-05-07 03:32:00,47.0,46.0,-100.00,SW,224,8.0,17.0,96,-99.99,,,-99.99,,2013-05-07 10:32:00,
2013-05-07 03:42:00,47.0,46.0,-100.00,SW,224,8.0,17.0,96,-99.99,,,-99.99,,2013-05-07 10:42:00,
2013-05-07 03:52:00,47.0,46.0,-100.00,SW,216,8.0,20.0,96,-99.99,,,-99.99,,2013-05-07 10:52:00,
2013-05-07 04:02:00,47.0,46.0,-100.00,SW,230,7.0,17.0,96,-99.99,,,-99.99,,2013-05-07 11:02:00,
2013-05-07 04:11:00,47.0,46.0,-100.00,WSW,245,5.0,13.0,96,-99.99,,,-99.99,,2013-05-07 11:11:00,
2013-05-07 04:21:00,47.0,46.0,-100.00,WSW,243,8.0,21.0,96,-99.99,,,-99.99,,2013-05-07 11:21:00,
2013-05-07 04:32:00,47.0,46.0,-100.00,SW,236,11.0,21.0,96,-99.99,,,-99.99,,2013-05-07 11:32:00,
2013-05-07 04:40:00,46.0,45.0,-100.00,West,274,15.0,25.0,96,-99.99,,,-99.99,,2013-05-07 11:40:00,
2013-05-07 04:42:00,46.0,45.0,-100.00,SW,221,9.0,23.0,96,-99.99,,,-99.99,,2013-05-07 11:42:00,
2013-05-07 04:51:00,46.0,45.0,-100.00,West,277,11.0,17.0,96,-99.99,,,-99.99,,2013-05-07 11:51:00,
2013-05-07 05:01:00,46.0,45.0,-100.00,West,277,13.0,21.0,96,-99.99,,,-99.99,,2013-05-07 12:01:00,
2013-05-07 05:11:00,46.0,45.0,-100.00,West,274,15.0,25.0,96,-99.99,,,-99.99,,2013-05-07 12:11:00,
2013-05-07 05:21:00,46.0,45.0,-100.00,West,274,15.0,25.0,96,-99.99,,,-99.99,,2013-05-07 12:21:00,
2013-05-07 05:32:00,46.0,45.0,-100.00,West,274,15.0,25.0,96,-99.99,,,-99.99,,2013-05-07 12:32:00,
2013-05-07 05:40:00,46.0,44.0,-100.00,WSW,247,7.0,11.0,94,-99.99,,,-99.99,,2013-05-07 12:40:00,
2013-05-07 05:52:00,46.0,44.0,-100.00,West,259,10.0,16.0,94,-99.99,,,-99.99,,2013-05-07 12:52:00,
2013-05-07 06:02:00,46.0,44.0,-100.00,West,259,10.0,16.0,94,-99.99,,,-99.99,,2013-05-07 13:02:00,
2013-05-07 06:11:00,46.0,44.0,-100.00,WSW,247,7.0,11.0,94,-99.99,,,-99.99,,2013-05-07 13:11:00,
2013-05-07 06:21:00,46.0,44.0,-100.00,WSW,247,7.0,11.0,94,-99.99,,,-99.99,,2013-05-07 13:21:00,
2013-05-07 06:32:00,46.0,44.0,-100.00,WSW,247,7.0,11.0,94,-99.99,,,-99.99,,2013-05-07 13:32:00,
2013-05-07 06:52:00,46.0,43.0,-100.00,SW,234,5.0,10.0,90,-99.99,,,-99.99,,2013-05-07 13:52:00,
2013-05-07 07:02:00,46.0,43.0,-100.00,SW,234,5.0,10.0,90,-99.99,,,-99.99,,2013-05-07 14:02:00,
2013-05-07 07:10:00,46.0,44.0,-100.00,WNW,289,3.0,8.0,92,-99.99,,,-99.99,,2013-05-07 14:10:00,
2013-05-07 07:11:00,46.0,43.0,-100.00,SW,236,7.0,18.0,89,-99.99,,,-99.99,,2013-05-07 14:11:00,
2013-05-07 07:21:00,46.0,43.0,-100.00,SW,236,7.0,18.0,89,-99.99,,,-99.99,,2013-05-07 14:21:00,
2013-05-07 07:31:00,45.0,43.0,-100.00,WSW,239,2.0,4.0,92,-99.99,,,-99.99,,2013-05-07 14:31:00,
2013-05-07 07:42:00,46.0,44.0,-100.00,WNW,289,3.0,8.0,92,-99.99,,,-99.99,,2013-05-07 14:42:00,
2013-05-07 07:52:00,46.0,44.0,-100.00,WNW,289,3.0,8.0,92,-99.99,,,-99.99,,2013-05-07 14:52:00,
2013-05-07 08:01:00,46.0,44.0,-100.00,WNW,289,3.0,8.0,92,-99.99,,,-99.99,,2013-05-07 15:01:00,
2013-05-07 08:20:00,47.0,45.0,-100.00,NW,313,6.0,10.0,93,-99.99,,,-99.99,,2013-05-07 15:20:00,
2013-05-07 08:21:00,46.0,43.0,-100.00,West,265,6.0,13.0,90,-99.99,,,-99.99,,2013-05-07 15:21:00,
2013-05-07 08:33:00,46.0,43.0,-100.00,West,265,6.0,13.0,90,-99.99,,,-99.99,,2013-05-07 15:33:00,
2013-05-07 08:42:00,47.0,45.0,-100.00,WNW,303,7.0,10.0,91,-99.99,,,-99.99,,2013-05-07 15:42:00,
2013-05-07 08:53:00,47.0,45.0,-100.00,NW,313,6.0,10.0,93,-99.99,,,-99.99,,2013-05-07 15:53:00,
2013-05-07 09:03:00,47.0,45.0,-100.00,NW,313,6.0,10.0,93,-99.99,,,-99.99,,2013-05-07 16:03:00,
2013-05-07 09:12:00,47.0,45.0,-100.00,NW,313,6.0,10.0,93,-99.99,,,-99.99,,2013-05-07 16:12:00,
2013-05-07 11:32:00,46.0,45.0,-100.00,West,280,8.0,11.0,96,-99.99,,,-99.99,,2013-05-07 18:32:00,
2013-05-07 11:42:00,46.0,44.0,-100.00,WNW,282,7.0,11.0,94,-99.99,,,-99.99,,2013-05-07 18:42:00,
2013-05-07 11:52:00,47.0,45.0,-100.00,WNW,283,6.0,11.0,92,-99.99,,,-99.99,,2013-05-07 18:52:00,
2013-05-07 12:00:00,49.0,45.0,-100.00,West,266,8.0,14.0,87,-99.99,,,-99.99,,2013-05-07 19:00:00,
2013-05-07 12:02:00,47.0,44.0,-100.00,WNW,283,6.0,10.0,90,-99.99,,,-99.99,,2013-05-07 19:02:00,
2013-05-07 12:11:00,48.0,44.0,-100.00,SW,233,7.0,16.0,87,-99.99,,,-99.99,,2013-05-07 19:11:00,
2013-05-07 12:21:00,49.0,45.0,-100.00,West,263,8.0,17.0,86,-99.99,,,-99.99,,2013-05-07 19:21:00,
2013-05-07 12:31:00,49.0,45.0,-100.00,West,266,8.0,14.0,87,-99.99,,,-99.99,,2013-05-07 19:31:00,
2013-05-07 12:41:00,49.0,45.0,-100.00,West,266,8.0,14.0,87,-99.99,,,-99.99,,2013-05-07 19:41:00,
2013-05-07 12:52:00,49.0,45.0,-100.00,West,266,8.0,14.0,87,-99.99,,,-99.99,,2013-05-07 19:52:00,
2013-05-07 13:11:00,49.0,45.0,-100.00,WNW,293,10.0,16.0,86,-99.99,,,-99.99,,2013-05-07 20:11:00,
2013-05-07 13:21:00,49.0,45.0,-100.00,WNW,285,10.0,16.0,85,-99.99,,,-99.99,,2013-05-07 20:21:00,
2013-05-07 13:32:00,49.0,45.0,-100.00,WNW,285,10.0,16.0,85,-99.99,,,-99.99,,2013-05-07 20:32:00,
2013-05-07 13:41:00,49.0,45.0,-100.00,WNW,285,10.0,16.0,85,-99.99,,,-99.99,,2013-05-07 20:41:00,
2013-05-07 13:51:00,48.0,45.0,-100.00,WNW,288,9.0,12.0,90,-99.99,,,-99.99,,2013-05-07 20:51:00,
2013-05-07 14:01:00,48.0,45.0,-100.00,WNW,288,9.0,12.0,90,-99.99,,,-99.99,,2013-05-07 21:01:00,
2013-05-07 14:11:00,48.0,45.0,-100.00,WNW,288,9.0,12.0,90,-99.99,,,-99.99,,2013-05-07 21:11:00,
2013-05-07 14:21:00,50.0,45.0,-100.00,NW,308,11.0,17.0,84,-99.99,,,-99.99,,2013-05-07 21:21:00,
2013-05-07 14:32:00,50.0,45.0,-100.00,WNW,291,10.0,17.0,84,-99.99,,,-99.99,,2013-05-07 21:32:00,
2013-05-07 14:42:00,50.0,44.0,-100.00,WNW,289,15.0,20.0,79,-99.99,,,-99.99,,2013-05-07 21:42:00,
2013-05-07 14:52:00,51.0,44.0,-100.00,WNW,284,13.0,20.0,78,-99.99,,,-99.99,,2013-05-07 21:52:00,
2013-05-07 15:02:00,51.0,44.0,-100.00,WNW,291,12.0,19.0,77,-99.99,,,-99.99,,2013-05-07 22:02:00,
2013-05-07 15:13:00,51.0,43.0,-100.00,WNW,283,12.0,18.0,74,-99.99,,,-99.99,,2013-05-07 22:13:00,
2013-05-07 15:22:00,51.0,43.0,-100.00,WNW,291,10.0,16.0,73,-99.99,,,-99.99,,2013-05-07 22:22:00,
2013-05-07 15:32:00,51.0,43.0,-100.00,WNW,291,10.0,16.0,73,-99.99,,,-99.99,,2013-05-07 22:32:00,
2013-05-07 15:42:00,50.0,42.0,-100.00,West,267,9.0,14.0,74,-99.99,,,-99.99,,2013-05-07 22:42:00,
2013-05-07 15:52:00,50.0,42.0,-100.00,West,267,9.0,14.0,74,-99.99,,,-99.99,,2013-05-07 22:52:00,
2013-05-07 16:02:00,51.0,42.0,-100.00,West,270,10.0,19.0,72,-99.99,,,-99.99,,2013-05-07 23:02:00,
2013-05-07 16:11:00,51.0,42.0,-100.00,WSW,239,9.0,17.0,70,-99.99,,,-99.99,,2013-05-07 23:11:00,
2013-05-07 16:21:00,51.0,42.0,-100.00,WSW,247,9.0,17.0,71,-99.99,,,-99.99,,2013-05-07 23:21:00,
2013-05-07 16:32:00,50.0,41.0,-100.00,WSW,246,9.0,15.0,71,-99.99,,,-99.99,,2013-05-07 23:32:00,
2013-05-07 16:41:00,50.0,41.0,-100.00,WSW,246,9.0,15.0,71,-99.99,,,-99.99,,2013-05-07 23:41:00,
2013-05-07 16:52:00,50.0,41.0,-100.00,WSW,246,9.0,15.0,71,-99.99,,,-99.99,,2013-05-07 23:52:00,
2013-05-07 17:01:00,50.0,44.0,-100.00,WNW,284,12.0,18.0,79,-99.99,,,-99.99,,2013-05-08 00:01:00,
2013-05-07 17:11:00,50.0,44.0,-100.00,WNW,284,12.0,18.0,79,-99.99,,,-99.99,,2013-05-08 00:11:00,
2013-05-07 17:21:00,50.0,44.0,-100.00,WNW,284,12.0,18.0,79,-99.99,,,-99.99,,2013-05-08 00:21:00,
2013-05-07 17:32:00,50.0,43.0,-100.00,WNW,298,12.0,17.0,78,-99.99,,,-99.99,,2013-05-08 00:32:00,
2013-05-07 17:42:00,49.0,42.0,-100.00,NW,306,11.0,17.0,77,-99.99,,,-99.99,,2013-05-08 00:42:00,
2013-05-07 17:50:00,49.0,43.0,-100.00,NW,305,11.0,15.0,79,-99.99,,,-99.99,,2013-05-08 00:50:00,
2013-05-07 17:51:00,49.0,42.0,-100.00,WNW,303,12.0,17.0,78,-99.99,,,-99.99,,2013-05-08 00:51:00,
2013-05-07 18:02:00,49.0,42.0,-100.00,WNW,303,12.0,17.0,78,-99.99,,,-99.99,,2013-05-08 01:02:00,
2013-05-07 18:11:00,49.0,42.0,-100.00,WNW,303,12.0,17.0,78,-99.99,,,-99.99,,2013-05-08 01:11:00,
2013-05-07 18:21:00,49.0,43.0,-100.00,NW,305,11.0,15.0,79,-99.99,,,-99.99,,2013-05-08 01:21:00,
2013-05-07 18:31:00,49.0,43.0,-100.00,NW,305,11.0,15.0,79,-99.99,,,-99.99,,2013-05-08 01:31:00,
2013-05-07 18:42:00,49.0,43.0,-100.00,NW,305,11.0,15.0,79,-99.99,,,-99.99,,2013-05-08 01:42:00,
2013-05-07 19:01:00,49.0,43.0,-100.00,WNW,301,11.0,16.0,79,-99.99,,,-99.99,,2013-05-08 02:01:00,
2013-05-07 19:12:00,49.0,43.0,-100.00,WNW,286,11.0,15.0,81,-99.99,,,-99.99,,2013-05-08 02:12:00,
2013-05-07 19:22:00,49.0,44.0,-100.00,WNW,294,10.0,13.0,82,-99.99,,,-99.99,,2013-05-08 02:22:00,
2013-05-07 19:31:00,49.0,44.0,-100.00,WNW,294,10.0,13.0,82,-99.99,,,-99.99,,2013-05-08 02:31:00,
2013-05-07 19:42:00,48.0,43.0,-100.00,WNW,292,10.0,14.0,82,-99.99,,,-99.99,,2013-05-08 02:42:00,
2013-05-07 19:52:00,48.0,43.0,-100.00,West,279,8.0,10.0,83,-99.99,,,-99.99,,2013-05-08 02:52:00,
2013-05-07 20:01:00,48.0,43.0,-100.00,West,279,8.0,10.0,83,-99.99,,,-99.99,,2013-05-08 03:01:00,
2013-05-07 20:11:00,48.0,43.0,-100.00,WNW,288,8.0,11.0,83,-99.99,,,-99.99,,2013-05-08 03:11:00,
2013-05-07 20:21:00,48.0,43.0,-100.00,WNW,288,8.0,11.0,83,-99.99,,,-99.99,,2013-05-08 03:21:00,
2013-05-07 20:30:00,47.0,43.0,-100.00,WSW,257,6.0,11.0,86,-99.99,,,-99.99,,2013-05-08 03:30:00,
2013-05-07 20:32:00,48.0,43.0,-100.00,WNW,293,8.0,11.0,83,-99.99,,,-99.99,,2013-05-08 03:32:00,
2013-05-07 20:43:00,48.0,43.0,-100.00,West,281,6.0,9.0,83,-99.99,,,-99.99,,2013-05-08 03:43:00,
2013-05-07 20:52:00,48.0,44.0,-100.00,West,264,6.0,10.0,85,-99.99,,,-99.99,,2013-05-08 03:52:00,
2013-05-07 21:02:00,47.0,43.0,-100.00,WSW,257,6.0,11.0,86,-99.99,,,-99.99,,2013-05-08 04:02:00,
2013-05-07 21:12:00,47.0,43.0,-100.00,WSW,257,6.0,11.0,86,-99.99,,,-99.99,,2013-05-08 04:12:00,
2013-05-07 21:22:00,47.0,43.0,-100.00,WSW,257,6.0,11.0,86,-99.99,,,-99.99,,2013-05-08 04:22:00,
2013-05-07 22:02:00,47.0,45.0,-100.00,NW,304,8.0,10.0,91,-99.99,,,-99.99,,2013-05-08 05:02:00,
2013-05-07 22:12:00,46.0,44.0,-100.00,NW,305,9.0,12.0,93,-99.99,,,-99.99,,2013-05-08 05:12:00,
2013-05-07 22:22:00,46.0,44.0,-100.00,WNW,303,9.0,12.0,93,-99.99,,,-99.99,,2013-05-08 05:22:00,
2013-05-07 22:32:00,46.0,44.0,-100.00,WNW,303,9.0,12.0,93,-99.99,,,-99.99,,2013-05-08 05:32:00,
2013-05-07 22:42:00,46.0,44.0,-100.00,NW,304,5.0,7.0,94,-99.99,,,-99.99,,2013-05-08 05:42:00,
2013-05-07 22:52:00,46.0,44.0,-100.00,NW,304,5.0,7.0,94,-99.99,,,-99.99,,2013-05-08 05:52:00,
2013-05-07 23:01:00,46.0,44.0,-100.00,NW,304,5.0,7.0,94,-99.99,,,-99.99,,2013-05-08 06:01:00,
2013-05-07 23:11:00,46.0,44.0,-100.00,WNW,303,6.0,7.0,92,-99.99,,,-99.99,,2013-05-08 06:11:00,
2013-05-07 23:21:00,46.0,44.0,-100.00,WNW,303,6.0,7.0,92,-99.99,,,-99.99,,2013-05-08 06:21:00,
2013-05-07 23:32:00,46.0,44.0,-100.00,WNW,303,6.0,7.0,92,-99.99,,,-99.99,,2013-05-08 06:32:00,
2013-05-07 23:41:00,45.0,44.0,-100.00,WNW,292,3.0,5.0,95,-99.99,,,-99.99,,2013-05-08 06:41:00,
2013-05-07 23:52:00,45.0,44.0,-100.00,WNW,292,3.0,5.0,95,-99.99,,,-99.99,,2013-05-08 06:52:00,